Time;durP1;ratioP1;P1;durP2;ratioP2;P2;SDS_P1;SDS_P2;PMS_P1;PMS_P2;Temp;Humidity;BMP_temperature;BMP_pressure;BME280_temperature;BME280_humidity;BME280_pressure;Samples;Min_cycle;Max_cycle;Signal;HPM_P1;HPM_P2
2024/02/09 00:01:15;;;;;;;17.63;3.13;;;9.70;99.90;;;;;;5074761;28;20161;-79
2024/02/09 00:03:41;;;;;;;20.60;3.80;;;9.70;99.90;;;;;;5074163;28;20457;-79
2024/02/09 00:06:07;;;;;;;29.83;4.72;;;9.70;99.90;;;;;;5074568;28;20239;-79
2024/02/09 00:08:32;;;;;;;18.93;3.17;;;9.70;99.90;;;;;;5074243;28;20223;-79
2024/02/09 00:10:58;;;;;;;20.37;4.40;;;9.70;99.90;;;;;;5074116;28;20415;-79
2024/02/09 00:13:24;;;;;;;25.07;4.57;;;9.70;99.90;;;;;;5074373;28;20230;-79
2024/02/09 00:15:49;;;;;;;29.67;4.97;;;9.70;99.90;;;;;;5074250;28;20192;-80
2024/02/09 00:18:16;;;;;;;22.07;4.20;;;9.70;99.90;;;;;;5056057;28;20663;-80
2024/02/09 00:20:47;;;;;;;23.55;3.83;;;9.70;99.90;;;;;;5074203;28;20157;-79
2024/02/09 00:23:13;;;;;;;24.67;4.05;;;9.70;99.90;;;;;;5075239;28;20579;-79
2024/02/09 00:25:40;;;;;;;25.83;4.57;;;9.70;99.90;;;;;;5056076;28;20164;-79
2024/02/09 00:28:06;;;;;;;17.60;4.30;;;9.70;99.90;;;;;;5074010;28;20184;-79
2024/02/09 00:30:32;;;;;;;29.80;4.95;;;9.70;99.90;;;;;;5074141;28;20161;-79
2024/02/09 00:33:03;;;;;;;19.15;4.03;;;9.70;99.90;;;;;;5056041;28;20172;-79
2024/02/09 00:35:29;;;;;;;20.33;4.03;;;9.70;99.90;;;;;;5074486;28;20152;-80
2024/02/09 00:37:55;;;;;;;21.70;3.83;;;9.80;99.90;;;;;;5073692;28;20203;-79
2024/02/09 00:40:23;;;;;;;21.65;4.03;;;9.80;99.90;;;;;;5055962;28;20900;-80
2024/02/09 00:42:51;;;;;;;22.25;4.65;;;9.80;99.90;;;;;;5073830;28;20165;-79
2024/02/09 00:45:19;;;;;;;23.60;4.20;;;9.80;99.90;;;;;;5073943;28;20695;-79
2024/02/09 00:47:47;;;;;;;21.65;4.45;;;9.70;99.90;;;;;;5073572;28;20184;-79
2024/02/09 00:50:17;;;;;;;27.88;5.70;;;9.70;99.90;;;;;;5055725;28;20179;-79
2024/02/09 00:52:48;;;;;;;32.60;6.45;;;9.70;99.90;;;;;;5073489;28;20232;-79
2024/02/09 00:55:14;;;;;;;23.48;4.57;;;9.70;99.90;;;;;;5074047;28;20199;-80
2024/02/09 00:57:40;;;;;;;24.30;5.77;;;9.70;99.90;;;;;;5073820;28;20200;-79
2024/02/09 01:00:09;;;;;;;25.27;4.10;;;9.60;99.90;;;;;;5073588;28;20195;-79
2024/02/09 01:02:34;;;;;;;23.92;5.45;;;9.60;99.90;;;;;;5073588;28;20165;-78
2024/02/09 01:05:00;;;;;;;22.20;4.40;;;9.60;99.90;;;;;;5073383;28;20182;-79
2024/02/09 01:07:26;;;;;;;23.07;4.27;;;9.60;99.90;;;;;;5073518;28;20184;-79
2024/02/09 01:09:52;;;;;;;23.83;4.82;;;9.50;99.90;;;;;;5073462;28;20164;-79
2024/02/09 02:45:11;;;;;;;21.67;3.70;;;9.60;99.90;;;;;;5076193;28;20161;-79
2024/02/09 02:47:38;;;;;;;20.35;3.83;;;9.60;99.90;;;;;;5076219;28;20561;-79
2024/02/09 03:06:29;;;;;;;19.52;3.45;;;9.50;99.90;;;;;;5076004;28;20528;-79
2024/02/09 03:08:54;;;;;;;22.40;4.10;;;9.50;99.90;;;;;;5076860;28;20180;-79
2024/02/09 03:11:21;;;;;;;18.13;3.57;;;9.50;99.90;;;;;;5076419;28;20169;-80
2024/02/09 03:13:49;;;;;;;16.73;3.25;;;9.50;99.90;;;;;;5075401;28;20164;-79
2024/02/09 03:16:17;;;;;;;23.63;4.13;;;9.50;99.90;;;;;;5075029;28;20255;-80
2024/02/09 03:18:44;;;;;;;19.38;3.65;;;9.50;99.90;;;;;;5075219;28;20653;-79
2024/02/09 03:21:13;;;;;;;18.13;3.83;;;9.50;99.90;;;;;;5075336;28;20629;-79
2024/02/09 03:23:39;;;;;;;21.35;3.53;;;9.50;99.90;;;;;;5057470;28;20168;-79
2024/02/09 03:26:04;;;;;;;17.83;3.63;;;9.50;99.90;;;;;;5075284;28;20247;-79
2024/02/09 03:28:30;;;;;;;22.37;3.90;;;9.50;99.90;;;;;;5075087;28;20581;-79
2024/02/09 03:30:56;;;;;;;23.37;3.67;;;9.50;99.90;;;;;;5057586;28;20163;-79
2024/02/09 03:33:21;;;;;;;17.13;3.17;;;9.60;99.90;;;;;;5075385;28;20202;-80
2024/02/09 03:35:47;;;;;;;20.23;3.60;;;9.60;99.90;;;;;;5075215;28;20168;-79
2024/02/09 03:38:13;;;;;;;16.13;2.93;;;9.60;99.90;;;;;;5074921;28;20200;-79
2024/02/09 03:40:39;;;;;;;21.90;3.40;;;9.60;99.90;;;;;;5075050;28;20168;-80
2024/02/09 03:43:08;;;;;;;14.07;2.23;;;9.60;99.90;;;;;;5075320;28;20164;-79
2024/02/09 03:45:33;;;;;;;20.70;2.78;;;9.60;99.90;;;;;;5074825;28;20644;-79
2024/02/09 03:48:00;;;;;;;17.13;2.60;;;9.60;99.90;;;;;;5074971;28;20351;-79
2024/02/09 03:50:26;;;;;;;19.80;3.70;;;9.70;99.90;;;;;;5056804;28;20172;-79
2024/02/09 03:52:51;;;;;;;27.83;2.07;;;9.70;99.90;;;;;;5074719;28;20168;-80
2024/02/09 03:55:17;;;;;;;15.87;1.77;;;9.60;99.90;;;;;;5074686;28;20255;-79
2024/02/09 03:57:45;;;;;;;17.43;1.73;;;9.60;99.90;;;;;;5056826;28;20196;-79
2024/02/09 04:00:15;;;;;;;21.23;1.60;;;9.60;99.90;;;;;;5075282;28;20184;-80
2024/02/09 04:02:42;;;;;;;15.80;1.60;;;9.60;99.90;;;;;;5074648;28;20145;-79
2024/02/09 04:05:08;;;;;;;14.45;1.33;;;9.60;99.90;;;;;;5074702;28;20156;-79
2024/02/09 04:07:34;;;;;;;20.37;1.80;;;9.70;99.90;;;;;;5074771;28;20711;-80
2024/02/09 04:10:01;;;;;;;15.30;1.43;;;9.70;99.90;;;;;;5074757;28;20413;-79
2024/02/09 04:12:28;;;;;;;14.77;1.30;;;9.60;99.90;;;;;;5074283;28;20172;-79
2024/02/09 04:14:55;;;;;;;15.70;1.48;;;9.70;99.90;;;;;;5074321;28;20275;-79
2024/02/09 04:17:22;;;;;;;13.98;1.20;;;9.60;99.90;;;;;;5074016;28;20181;-79
2024/02/09 04:19:48;;;;;;;13.30;1.30;;;9.70;99.90;;;;;;5074333;28;20247;-79
2024/02/09 04:22:14;;;;;;;16.50;1.60;;;9.70;99.90;;;;;;5074423;28;20243;-79
2024/02/09 04:24:39;;;;;;;15.30;1.50;;;9.70;99.90;;;;;;5074126;28;20164;-80
2024/02/09 04:27:05;;;;;;;15.90;2.00;;;9.70;99.90;;;;;;5055365;28;20188;-79
2024/02/09 04:29:32;;;;;;;13.73;1.25;;;9.70;99.90;;;;;;5055986;28;20629;-79
2024/02/09 04:32:01;;;;;;;13.52;1.40;;;9.70;99.90;;;;;;5056021;28;20203;-80
2024/02/09 04:34:26;;;;;;;14.07;1.88;;;9.70;99.90;;;;;;5073845;28;20655;-79
2024/02/09 04:36:55;;;;;;;13.03;1.23;;;9.70;99.90;;;;;;5074246;28;20248;-79
2024/02/09 04:39:20;;;;;;;13.85;1.40;;;9.70;99.90;;;;;;5073639;28;20200;-79
2024/02/09 04:41:48;;;;;;;13.97;1.53;;;9.70;99.90;;;;;;5074149;28;20243;-80
2024/02/09 04:44:14;;;;;;;13.80;1.30;;;9.70;99.90;;;;;;5073704;28;20577;-79
2024/02/09 04:46:40;;;;;;;13.50;1.73;;;9.70;99.90;;;;;;5074099;28;20161;-81
2024/02/09 04:49:08;;;;;;;14.75;1.33;;;9.70;99.90;;;;;;5073843;28;20559;-79
2024/02/09 04:51:34;;;;;;;13.45;1.40;;;9.70;99.90;;;;;;5073780;28;20168;-79
2024/02/09 04:54:00;;;;;;;13.10;1.37;;;9.70;99.90;;;;;;5074164;28;20164;-79
2024/02/09 04:56:29;;;;;;;14.07;1.60;;;9.60;99.90;;;;;;5073592;28;20168;-79
2024/02/09 04:58:59;;;;;;;14.30;1.70;;;9.60;99.90;;;;;;5073262;28;20284;-79
2024/02/09 05:01:30;;;;;;;14.32;1.30;;;9.60;99.90;;;;;;5073556;28;20167;-80
2024/02/09 05:03:59;;;;;;;15.77;1.60;;;9.60;99.90;;;;;;5073898;28;20149;-79
2024/02/09 05:06:26;;;;;;;13.70;1.60;;;9.60;99.90;;;;;;5073787;28;20247;-80
2024/02/09 05:08:53;;;;;;;17.77;1.83;;;9.60;99.90;;;;;;5073390;28;20192;-79
2024/02/09 05:11:21;;;;;;;14.32;1.50;;;9.60;99.90;;;;;;5073537;28;20180;-79
2024/02/09 05:13:50;;;;;;;14.38;1.70;;;9.60;99.90;;;;;;5073721;28;20164;-79
2024/02/09 05:16:18;;;;;;;14.25;1.85;;;9.50;99.90;;;;;;5073619;28;20164;-79
2024/02/09 05:18:44;;;;;;;14.68;1.90;;;9.50;99.90;;;;;;5073251;28;20216;-79
2024/02/09 05:21:11;;;;;;;13.17;1.27;;;9.50;99.90;;;;;;5073774;28;20161;-79
2024/02/09 05:23:38;;;;;;;15.48;2.10;;;9.50;99.90;;;;;;5055449;28;20403;-79
2024/02/09 05:26:07;;;;;;;15.90;1.40;;;9.50;99.90;;;;;;5073724;28;20192;-79
2024/02/09 05:28:39;;;;;;;17.02;1.65;;;9.50;99.90;;;;;;5073828;28;20180;-79
2024/02/09 05:31:15;;;;;;;15.80;1.77;;;9.50;99.90;;;;;;5073675;28;20151;-79
2024/02/09 05:33:42;;;;;;;14.27;1.70;;;9.50;99.90;;;;;;5055619;28;20657;-79
2024/02/09 05:36:17;;;;;;;14.68;1.88;;;9.50;99.90;;;;;;5073218;28;20169;-79
2024/02/09 05:38:43;;;;;;;16.52;1.67;;;9.50;99.90;;;;;;5075100;28;20665;-79
2024/02/09 05:41:08;;;;;;;15.10;2.10;;;9.50;99.90;;;;;;5077551;28;20176;-79
2024/02/09 05:43:36;;;;;;;15.03;1.73;;;9.60;99.90;;;;;;5077165;28;20223;-79
2024/02/09 05:46:01;;;;;;;18.80;2.20;;;9.60;99.90;;;;;;5077232;28;20180;-79
2024/02/09 05:48:27;;;;;;;15.20;2.03;;;9.60;99.90;;;;;;5077096;28;20184;-79
2024/02/09 05:50:53;;;;;;;18.47;1.97;;;9.60;99.90;;;;;;5077092;28;20239;-79
2024/02/09 05:53:19;;;;;;;14.60;2.40;;;9.60;99.90;;;;;;5058901;28;20164;-79
2024/02/09 05:55:45;;;;;;;18.63;1.83;;;9.60;99.90;;;;;;5076992;28;20685;-79
2024/02/09 05:58:11;;;;;;;15.30;1.40;;;9.60;99.90;;;;;;5077099;28;20283;-79
2024/02/09 06:00:38;;;;;;;13.50;1.10;;;9.60;99.90;;;;;;5077195;28;20490;-79
2024/02/09 06:03:06;;;;;;;13.20;1.10;;;9.60;99.90;;;;;;5076837;28;20170;-80
2024/02/09 06:05:32;;;;;;;14.15;1.40;;;9.60;99.90;;;;;;5077325;28;20612;-79
2024/02/09 06:08:00;;;;;;;15.00;1.50;;;9.60;99.90;;;;;;5058668;28;20188;-79
2024/02/09 06:10:27;;;;;;;13.60;1.10;;;9.60;99.90;;;;;;5076867;28;20171;-80
2024/02/09 06:12:53;;;;;;;13.10;0.90;;;9.60;99.90;;;;;;5076923;28;20203;-79
2024/02/09 06:15:18;;;;;;;13.50;1.00;;;9.60;99.90;;;;;;5076820;28;20641;-79
2024/02/09 06:17:44;;;;;;;13.07;1.00;;;9.60;99.90;;;;;;5076464;28;20216;-79
2024/02/09 06:20:10;;;;;;;12.87;1.10;;;9.60;99.90;;;;;;5077044;28;20176;-80
2024/02/09 06:22:37;;;;;;;13.02;1.00;;;9.60;99.90;;;;;;5077236;28;20411;-79
2024/02/09 06:25:05;;;;;;;15.50;1.35;;;9.60;99.90;;;;;;5077279;28;20735;-79
2024/02/09 06:27:31;;;;;;;15.18;1.42;;;9.60;99.90;;;;;;5076842;28;20668;-80
2024/02/09 06:29:58;;;;;;;13.60;1.13;;;9.60;99.90;;;;;;5059528;28;20169;-80
2024/02/09 06:32:26;;;;;;;13.40;1.15;;;9.50;99.90;;;;;;5060139;28;20938;-80
2024/02/09 06:34:52;;;;;;;13.30;1.00;;;9.50;99.90;;;;;;5079311;28;20167;-80
2024/02/09 06:37:18;;;;;;;13.50;1.47;;;9.40;99.90;;;;;;5078269;28;20271;-80
2024/02/09 06:39:47;;;;;;;14.27;1.30;;;9.40;99.90;;;;;;5077813;28;20426;-80
2024/02/09 06:42:13;;;;;;;12.98;1.08;;;9.40;99.90;;;;;;5077885;28;20164;-80
2024/02/09 06:44:42;;;;;;;15.30;1.40;;;9.40;99.90;;;;;;5059327;28;20592;-80
2024/02/09 06:47:12;;;;;;;13.57;1.10;;;9.40;99.90;;;;;;5076755;28;20181;-80
2024/02/09 06:49:43;;;;;;;17.27;1.35;;;9.40;99.90;;;;;;5076447;28;20181;-80
2024/02/09 06:52:09;;;;;;;14.15;1.30;;;9.40;99.90;;;;;;5076840;28;20194;-80
2024/02/09 06:54:34;;;;;;;13.60;1.20;;;9.40;99.90;;;;;;5058859;28;20172;-80
2024/02/09 06:57:00;;;;;;;14.00;1.30;;;9.40;99.90;;;;;;5076674;28;20419;-81
2024/02/09 06:59:26;;;;;;;16.50;1.40;;;9.50;99.90;;;;;;5076857;28;20185;-81
2024/02/09 07:01:52;;;;;;;16.65;1.48;;;9.50;99.90;;;;;;5076223;28;20410;-80
2024/02/09 07:04:18;;;;;;;16.13;1.50;;;9.50;99.90;;;;;;5076945;28;20748;-80
2024/02/09 07:06:53;;;;;;;14.20;1.47;;;9.50;99.90;;;;;;5077633;28;20372;-80
2024/02/09 07:09:20;;;;;;;15.35;1.52;;;9.60;99.90;;;;;;5076857;28;20144;-80
2024/02/09 07:11:49;;;;;;;18.60;1.65;;;9.50;99.90;;;;;;5076953;28;20167;-80
2024/02/09 07:14:16;;;;;;;15.10;2.17;;;9.60;99.90;;;;;;5077590;28;20176;-80
2024/02/09 07:16:42;;;;;;;15.25;2.25;;;9.60;99.90;;;;;;5077134;28;20168;-80
2024/02/09 07:19:12;;;;;;;21.07;3.90;;;9.60;99.90;;;;;;5076615;28;20600;-80
2024/02/09 07:21:41;;;;;;;18.35;2.72;;;9.60;99.90;;;;;;5058902;28;20394;-80
2024/02/09 07:24:08;;;;;;;14.60;2.40;;;9.60;99.90;;;;;;5059252;28;20168;-80
2024/02/09 07:26:37;;;;;;;15.27;2.63;;;9.60;99.90;;;;;;5076801;28;20171;-80
2024/02/09 07:29:04;;;;;;;16.50;2.80;;;9.60;99.90;;;;;;5076779;28;20209;-80
2024/02/09 07:31:30;;;;;;;17.20;3.20;;;9.60;99.90;;;;;;5077275;28;20169;-80
2024/02/09 07:33:56;;;;;;;15.07;2.13;;;9.60;99.90;;;;;;5058740;28;20210;-80
2024/02/09 07:36:23;;;;;;;15.13;2.65;;;9.60;99.90;;;;;;5077324;28;20417;-80
2024/02/09 07:38:49;;;;;;;15.85;2.30;;;9.70;99.90;;;;;;5058720;28;20208;-80
2024/02/09 07:41:19;;;;;;;15.07;2.70;;;9.70;99.90;;;;;;5078003;28;20165;-80
2024/02/09 07:43:46;;;;;;;15.73;2.70;;;9.70;99.90;;;;;;5077364;28;20618;-80
2024/02/09 07:46:15;;;;;;;19.42;2.70;;;9.80;99.90;;;;;;5058730;28;20169;-80
2024/02/09 07:48:41;;;;;;;18.90;2.47;;;9.80;99.90;;;;;;5076361;28;20559;-80
2024/02/09 07:51:07;;;;;;;18.83;2.53;;;9.80;99.90;;;;;;5076553;28;20182;-80
2024/02/09 07:53:33;;;;;;;13.70;1.50;;;9.90;99.90;;;;;;5076639;28;20549;-80
2024/02/09 07:55:59;;;;;;;16.17;2.27;;;9.90;99.90;;;;;;5076377;28;20171;-80
2024/02/09 07:58:25;;;;;;;16.67;1.83;;;9.90;99.90;;;;;;5076173;28;20279;-80
2024/02/09 08:00:54;;;;;;;14.60;2.00;;;9.90;99.90;;;;;;5075954;28;20203;-80
2024/02/09 08:03:20;;;;;;;15.05;1.80;;;10.00;99.90;;;;;;5075677;28;20403;-81
2024/02/09 08:05:47;;;;;;;17.73;2.25;;;10.00;99.90;;;;;;5077112;28;20153;-80
2024/02/09 08:08:12;;;;;;;14.80;2.15;;;10.00;99.90;;;;;;5077333;28;20212;-80
2024/02/09 08:10:38;;;;;;;13.83;1.93;;;10.10;99.90;;;;;;5058688;28;20179;-80
2024/02/09 08:13:04;;;;;;;16.77;2.20;;;10.10;99.90;;;;;;5077133;28;20398;-81
2024/02/09 08:15:31;;;;;;;15.53;2.17;;;10.10;99.90;;;;;;5076551;28;20432;-81
2024/02/09 08:17:57;;;;;;;17.67;2.70;;;10.10;99.90;;;;;;5058425;28;20454;-80
2024/02/09 08:20:23;;;;;;;16.00;2.17;;;10.10;99.90;;;;;;5076871;28;20719;-80
2024/02/09 08:22:49;;;;;;;14.32;2.10;;;10.20;99.90;;;;;;5058675;28;20856;-80
2024/02/09 08:25:15;;;;;;;14.52;1.73;;;10.20;99.90;;;;;;5076120;28;20631;-80
2024/02/09 08:27:41;;;;;;;15.50;2.50;;;10.30;99.90;;;;;;5076764;28;20658;-80
2024/02/09 08:30:09;;;;;;;14.67;1.90;;;10.30;99.90;;;;;;5058015;28;20172;-80
2024/02/09 08:32:36;;;;;;;18.95;2.78;;;10.30;99.90;;;;;;5076045;28;20760;-80
2024/02/09 08:35:03;;;;;;;14.90;2.40;;;10.30;99.90;;;;;;5075366;28;20172;-80
2024/02/09 08:37:29;;;;;;;19.33;2.63;;;10.30;99.90;;;;;;5075367;28;20199;-80
2024/02/09 08:39:59;;;;;;;17.37;1.80;;;10.30;99.90;;;;;;5058620;28;20172;-81
2024/02/09 08:42:29;;;;;;;25.73;2.60;;;10.30;99.90;;;;;;5058471;28;20411;-80
2024/02/09 08:44:56;;;;;;;16.98;1.80;;;10.40;99.90;;;;;;5076859;28;20168;-80
2024/02/09 08:47:22;;;;;;;19.98;1.80;;;10.40;99.90;;;;;;5076603;28;20195;-81
2024/02/09 08:49:48;;;;;;;13.80;1.67;;;10.40;99.90;;;;;;5076439;28;20204;-81
2024/02/09 08:52:14;;;;;;;15.25;1.67;;;10.40;99.90;;;;;;5077399;28;20161;-81
2024/02/09 08:54:39;;;;;;;14.87;2.00;;;10.50;99.90;;;;;;5076218;28;20172;-80
2024/02/09 08:57:05;;;;;;;14.97;1.80;;;10.50;99.90;;;;;;5076325;28;20186;-80
2024/02/09 08:59:31;;;;;;;14.33;1.63;;;10.50;99.90;;;;;;5076162;28;20223;-80
2024/02/09 09:01:58;;;;;;;14.20;1.40;;;10.50;99.90;;;;;;5076582;28;20406;-80
2024/02/09 09:04:24;;;;;;;14.82;1.70;;;10.60;99.90;;;;;;5058754;28;20168;-81
2024/02/09 09:06:49;;;;;;;15.30;1.73;;;10.60;99.90;;;;;;5058025;28;20743;-81
2024/02/09 09:09:15;;;;;;;16.60;1.90;;;10.60;99.90;;;;;;5058356;28;20522;-81
2024/02/09 09:11:42;;;;;;;14.00;1.70;;;10.70;99.90;;;;;;5075543;28;20648;-81
2024/02/09 09:14:10;;;;;;;21.63;2.30;;;10.70;99.90;;;;;;5062816;28;20172;-80
2024/02/09 09:16:37;;;;;;;17.48;2.20;;;10.70;99.90;;;;;;5083099;28;20164;-81
2024/02/09 09:19:05;;;;;;;15.57;2.15;;;10.80;99.90;;;;;;5065277;28;20275;-81
2024/02/09 09:21:31;;;;;;;19.02;2.40;;;10.80;99.90;;;;;;5083527;28;20156;-81
2024/02/09 09:23:59;;;;;;;14.90;2.17;;;10.80;99.90;;;;;;5065303;28;20207;-81
2024/02/09 09:26:28;;;;;;;13.80;1.60;;;10.80;99.90;;;;;;5083493;28;20153;-81
2024/02/09 09:28:54;;;;;;;18.02;2.28;;;10.90;99.90;;;;;;5083032;28;20199;-81
2024/02/09 09:31:19;;;;;;;18.30;3.50;;;11.00;99.90;;;;;;5083528;28;20160;-81
2024/02/09 09:33:45;;;;;;;16.00;3.03;;;11.00;99.90;;;;;;5082887;28;20191;-81
2024/02/09 09:36:12;;;;;;;18.87;3.13;;;11.00;99.90;;;;;;5082851;28;20161;-81
2024/02/09 09:38:37;;;;;;;17.02;2.40;;;11.00;99.90;;;;;;5063861;28;20211;-81
2024/02/09 09:41:03;;;;;;;15.97;2.23;;;11.00;99.90;;;;;;5082231;28;20653;-80
2024/02/09 09:43:29;;;;;;;14.37;2.00;;;11.10;99.90;;;;;;5082942;28;20152;-81
2024/02/09 09:46:00;;;;;;;13.83;1.87;;;11.00;99.90;;;;;;5082719;28;20677;-81
2024/02/09 09:48:28;;;;;;;23.65;2.65;;;11.10;99.90;;;;;;5066011;28;20192;-81
2024/02/09 09:50:55;;;;;;;16.63;2.60;;;11.10;99.90;;;;;;5065052;28;20172;-81
2024/02/09 09:53:25;;;;;;;18.30;1.80;;;11.20;99.90;;;;;;5082967;28;20172;-81
2024/02/09 09:55:53;;;;;;;15.35;2.42;;;11.10;99.90;;;;;;5083238;28;20161;-81
2024/02/09 09:58:20;;;;;;;14.05;1.83;;;11.10;99.90;;;;;;5065014;28;20282;-81
2024/02/09 10:00:49;;;;;;;18.20;1.80;;;11.30;99.90;;;;;;5068323;28;20168;-81
2024/02/09 10:03:17;;;;;;;14.00;2.10;;;11.30;99.90;;;;;;5084071;28;20705;-81
2024/02/09 10:05:44;;;;;;;15.80;2.03;;;11.20;99.90;;;;;;5083699;28;20160;-81
2024/02/09 10:08:11;;;;;;;15.38;1.75;;;11.30;99.90;;;;;;5083109;28;20265;-81
2024/02/09 10:10:37;;;;;;;15.15;2.10;;;11.30;99.90;;;;;;5083518;28;20179;-81
2024/02/09 10:13:08;;;;;;;15.68;2.28;;;11.30;99.90;;;;;;5084097;28;20211;-81
2024/02/09 10:15:34;;;;;;;15.85;2.20;;;11.30;99.90;;;;;;5085416;28;20568;-81
2024/02/09 10:18:01;;;;;;;19.10;1.90;;;11.30;99.90;;;;;;5083995;28;20287;-81
2024/02/09 10:20:28;;;;;;;14.07;1.73;;;11.30;99.90;;;;;;5067070;28;20172;-81
2024/02/09 10:22:54;;;;;;;14.55;1.50;;;11.40;99.90;;;;;;5085450;28;20168;-80
2024/02/09 10:25:21;;;;;;;17.20;1.97;;;11.40;99.90;;;;;;5081241;28;20657;-80
2024/02/09 10:27:50;;;;;;;14.98;2.08;;;11.40;99.90;;;;;;5080839;28;20480;-80
2024/02/09 10:30:17;;;;;;;17.73;2.50;;;11.40;99.90;;;;;;5062644;28;20168;-81
2024/02/09 10:32:43;;;;;;;15.02;1.67;;;11.40;99.90;;;;;;5080187;28;20243;-81
2024/02/09 10:35:09;;;;;;;14.27;1.40;;;11.50;99.90;;;;;;5080753;28;20169;-81
2024/02/09 10:37:34;;;;;;;22.93;1.90;;;11.40;99.90;;;;;;5080820;28;20433;-81
2024/02/09 10:40:00;;;;;;;16.03;1.97;;;11.40;99.90;;;;;;5062847;28;20161;-80
2024/02/09 10:42:28;;;;;;;14.57;2.27;;;11.40;99.90;;;;;;5080815;28;20621;-81
2024/02/09 10:44:54;;;;;;;15.15;2.08;;;11.40;99.90;;;;;;5080924;28;20153;-80
2024/02/09 10:47:26;;;;;;;18.65;1.70;;;11.40;99.90;;;;;;5080388;28;20181;-81
2024/02/09 10:49:57;;;;;;;15.73;2.00;;;11.50;99.90;;;;;;5081221;28;20148;-82
2024/02/09 10:52:25;;;;;;;14.43;2.05;;;11.50;99.90;;;;;;5063177;28;20157;-80
2024/02/09 10:54:53;;;;;;;18.65;2.25;;;11.50;99.90;;;;;;5080580;28;20155;-81
2024/02/09 10:57:21;;;;;;;17.50;2.72;;;11.50;99.90;;;;;;5080067;28;20176;-81
2024/02/09 10:59:47;;;;;;;16.63;2.00;;;11.60;99.90;;;;;;5081208;28;20242;-82
2024/02/09 11:02:14;;;;;;;17.60;2.00;;;11.60;99.90;;;;;;5081744;28;20177;-81
2024/02/09 11:04:40;;;;;;;14.30;2.03;;;11.70;99.90;;;;;;5081696;28;20165;-81
2024/02/09 11:07:06;;;;;;;15.38;2.00;;;11.80;99.90;;;;;;5062963;28;20193;-81
2024/02/09 11:09:32;;;;;;;15.50;1.83;;;11.80;99.90;;;;;;5081028;28;20164;-80
2024/02/09 11:12:04;;;;;;;14.60;1.83;;;11.80;99.90;;;;;;5080784;28;20896;-81
2024/02/09 11:14:32;;;;;;;15.15;1.92;;;11.90;99.90;;;;;;5081142;28;20403;-81
2024/02/09 11:17:06;;;;;;;14.80;1.80;;;11.90;99.90;;;;;;5080866;28;20204;-81
2024/02/09 11:19:38;;;;;;;14.57;1.55;;;11.90;99.90;;;;;;5081170;28;20549;-80
2024/02/09 11:22:04;;;;;;;14.20;1.70;;;11.90;99.90;;;;;;5081359;28;20244;-81
2024/02/09 11:24:31;;;;;;;15.60;1.90;;;11.90;99.90;;;;;;5063465;28;20164;-81
2024/02/09 11:27:01;;;;;;;17.70;2.63;;;11.90;99.90;;;;;;5080289;28;20188;-82
2024/02/09 11:29:27;;;;;;;16.73;1.95;;;11.90;99.90;;;;;;5080687;28;20236;-81
2024/02/09 11:31:58;;;;;;;17.70;2.47;;;11.90;99.90;;;;;;5062250;28;20168;-80
2024/02/09 11:34:25;;;;;;;16.33;2.33;;;11.90;99.90;;;;;;5081223;28;20145;-80
2024/02/09 11:36:58;;;;;;;15.52;2.53;;;11.90;99.90;;;;;;5081494;28;20210;-81
2024/02/09 11:39:25;;;;;;;15.82;2.42;;;11.90;99.90;;;;;;5081223;28;20672;-81
2024/02/09 11:41:53;;;;;;;14.40;2.20;;;11.90;99.90;;;;;;5082301;28;20243;-81
2024/02/09 11:44:20;;;;;;;13.77;1.83;;;11.90;99.90;;;;;;5064507;28;20537;-81
2024/02/09 11:46:46;;;;;;;15.98;1.75;;;11.90;99.90;;;;;;5080550;28;20606;-81
2024/02/09 11:49:14;;;;;;;14.93;2.10;;;11.90;99.90;;;;;;5062562;28;20169;-81
2024/02/09 11:51:39;;;;;;;14.55;1.90;;;11.90;99.90;;;;;;5081006;28;20156;-81
2024/02/09 11:54:09;;;;;;;15.20;2.10;;;11.90;99.90;;;;;;5081573;28;20250;-81
2024/02/09 11:56:37;;;;;;;13.77;1.60;;;12.00;99.90;;;;;;5062435;28;20414;-80
2024/02/09 11:59:04;;;;;;;14.93;1.80;;;12.00;99.90;;;;;;5080621;28;20188;-80
2024/02/09 12:01:30;;;;;;;15.90;2.30;;;12.10;99.90;;;;;;5081579;28;20239;-81
2024/02/09 12:03:57;;;;;;;16.52;2.35;;;12.10;99.90;;;;;;5081399;28;20507;-81
2024/02/09 12:06:23;;;;;;;16.60;2.72;;;12.10;99.90;;;;;;5081661;28;20175;-81
2024/02/09 12:08:50;;;;;;;20.70;3.17;;;12.20;99.90;;;;;;5082560;28;20215;-81
2024/02/09 12:11:18;;;;;;;17.00;2.65;;;12.10;99.90;;;;;;5082037;28;20720;-82
2024/02/09 12:13:45;;;;;;;15.65;2.60;;;12.10;99.90;;;;;;5082224;28;20580;-82
2024/02/09 12:16:11;;;;;;;16.20;2.75;;;12.00;99.90;;;;;;5082760;28;20222;-81
2024/02/09 12:18:37;;;;;;;16.40;3.10;;;12.10;99.90;;;;;;5082281;28;20200;-81
2024/02/09 12:21:03;;;;;;;17.67;3.30;;;12.00;99.90;;;;;;5082589;28;20161;-82
2024/02/09 12:23:29;;;;;;;16.40;2.73;;;12.10;99.90;;;;;;5064087;28;20607;-81
2024/02/09 12:25:56;;;;;;;16.83;3.63;;;12.20;99.90;;;;;;5082991;28;20486;-82
2024/02/09 12:28:23;;;;;;;15.98;2.92;;;12.40;99.90;;;;;;5064209;28;20192;-81
2024/02/09 12:30:52;;;;;;;23.27;3.50;;;12.60;99.90;;;;;;5084430;28;20293;-82
2024/02/09 12:33:19;;;;;;;17.35;3.13;;;12.70;99.90;;;;;;5067917;28;20179;-81
2024/02/09 12:35:45;;;;;;;17.92;2.95;;;12.90;99.90;;;;;;5086879;28;20232;-83
2024/02/09 12:38:16;;;;;;;13.83;2.57;;;13.10;99.90;;;;;;5084306;28;20224;-81
2024/02/09 12:40:43;;;;;;;16.05;2.95;;;13.10;99.90;;;;;;5066201;28;20238;-82
2024/02/09 12:43:13;;;;;;;15.20;2.22;;;13.20;99.90;;;;;;5084593;28;20182;-82
2024/02/09 12:45:39;;;;;;;14.70;2.30;;;13.20;99.90;;;;;;5085188;28;20156;-82
2024/02/09 12:48:06;;;;;;;14.20;1.90;;;13.20;99.90;;;;;;5084798;28;20180;-81
2024/02/09 12:50:33;;;;;;;13.63;1.80;;;13.20;99.90;;;;;;5083661;28;20163;-81
2024/02/09 12:53:01;;;;;;;16.70;2.20;;;13.10;99.90;;;;;;5082158;28;20653;-81
2024/02/09 12:55:27;;;;;;;15.45;1.92;;;13.10;99.90;;;;;;5082945;28;20399;-82
2024/02/09 12:57:54;;;;;;;13.83;1.93;;;13.10;99.90;;;;;;5083562;28;20214;-82
2024/02/09 13:00:23;;;;;;;15.15;1.77;;;13.20;99.90;;;;;;5082626;28;20172;-82
2024/02/09 13:02:49;;;;;;;15.70;1.52;;;13.20;99.90;;;;;;5082933;28;20165;-82
2024/02/09 13:05:15;;;;;;;14.80;2.40;;;13.10;99.90;;;;;;5083717;28;20169;-82
2024/02/09 13:07:41;;;;;;;14.27;1.87;;;13.00;99.90;;;;;;5083098;28;20415;-83
2024/02/09 13:10:10;;;;;;;13.90;1.50;;;13.00;99.90;;;;;;5085735;28;20489;-82
2024/02/09 13:12:37;;;;;;;13.60;1.70;;;13.00;99.90;;;;;;5087056;28;20642;-83
2024/02/09 13:15:06;;;;;;;15.32;1.75;;;13.00;99.90;;;;;;5087192;28;20140;-83
2024/02/09 13:17:35;;;;;;;17.48;2.40;;;13.00;99.90;;;;;;5086727;28;20198;-83
2024/02/09 13:20:05;;;;;;;17.50;1.95;;;12.90;99.90;;;;;;5087316;28;20264;-82
2024/02/09 13:22:32;;;;;;;14.18;1.65;;;13.00;99.90;;;;;;5085723;28;20176;-82
2024/02/09 13:24:58;;;;;;;15.52;2.65;;;13.00;99.90;;;;;;5087521;28;20210;-82
2024/02/09 13:27:24;;;;;;;15.60;2.07;;;13.00;99.90;;;;;;5087089;28;20183;-82
2024/02/09 13:29:50;;;;;;;14.85;1.70;;;13.10;99.90;;;;;;5085993;28;20687;-81
2024/02/09 13:32:16;;;;;;;13.88;1.70;;;13.00;99.90;;;;;;5065932;28;20637;-83
2024/02/09 13:34:45;;;;;;;15.40;1.95;;;13.00;99.90;;;;;;5083843;28;20187;-82
2024/02/09 13:37:10;;;;;;;13.77;1.50;;;13.00;99.90;;;;;;5083925;28;20184;-82
2024/02/09 13:39:36;;;;;;;17.37;1.73;;;13.00;99.90;;;;;;5084212;28;20192;-82
2024/02/09 13:42:03;;;;;;;15.55;1.83;;;13.10;99.90;;;;;;5082894;28;20169;-81
2024/02/09 13:44:29;;;;;;;15.85;1.90;;;12.90;99.90;;;;;;5082713;28;20157;-82
2024/02/09 13:46:55;;;;;;;15.70;1.80;;;12.90;99.90;;;;;;5065157;28;20188;-81
2024/02/09 13:49:21;;;;;;;13.30;1.30;;;12.90;99.90;;;;;;5084127;28;20413;-84
2024/02/09 13:51:48;;;;;;;14.40;1.67;;;13.00;99.90;;;;;;5075764;28;20183;-83
2024/02/09 13:54:14;;;;;;;16.50;1.83;;;13.10;99.90;;;;;;5079212;28;20171;-81
2024/02/09 13:56:39;;;;;;;14.57;1.60;;;13.10;99.90;;;;;;5082583;28;20168;-83
2024/02/09 13:59:05;;;;;;;14.37;1.20;;;13.10;99.90;;;;;;5064127;28;20203;-82
2024/02/09 14:01:31;;;;;;;13.70;1.30;;;13.20;99.90;;;;;;5084785;28;20161;-83
2024/02/09 14:03:57;;;;;;;15.60;1.70;;;13.20;99.90;;;;;;5086660;28;20410;-81
2024/02/09 14:06:23;;;;;;;13.80;1.37;;;13.20;99.90;;;;;;5086546;28;20165;-82
2024/02/09 14:08:49;;;;;;;13.25;1.10;;;13.20;99.90;;;;;;5086946;28;20298;-81
2024/02/09 14:11:15;;;;;;;13.97;1.47;;;13.20;99.90;;;;;;5087257;28;20160;-82
2024/02/09 14:13:42;;;;;;;14.23;1.43;;;13.10;99.90;;;;;;5088326;28;20183;-82
2024/02/09 14:16:08;;;;;;;14.15;1.40;;;13.20;99.90;;;;;;5088381;28;20399;-81
2024/02/09 14:18:34;;;;;;;13.77;1.43;;;13.20;99.90;;;;;;5070137;28;20218;-82
2024/02/09 14:21:06;;;;;;;13.70;1.10;;;13.10;99.90;;;;;;5070243;28;20176;-82
2024/02/09 14:23:35;;;;;;;13.45;1.42;;;13.00;99.90;;;;;;5087207;28;20164;-82
2024/02/09 14:26:01;;;;;;;13.73;1.40;;;13.00;99.90;;;;;;5089299;28;20225;-81
2024/02/09 14:28:28;;;;;;;13.67;1.30;;;13.00;99.90;;;;;;5088754;28;20192;-83